< < Back
Terminal Aerodrome Forecast


Current Version              Previous Versions:   1  2  3  4  5  6  7  8  9  

Terminal Aerodrome Forecast

953
FTUS42 KJAX 212300
TAFGNV
TAF
KGNV 212340Z 2200/2224 04004KT P6SM FEW100 SCT250
     FM220600 05005KT P6SM FEW035 BKN100
     FM221100 05007KT P6SM FEW025 SCT035 BKN080
     FM221300 06008G15KT P6SM VCSH SCT025 OVC070
     FM221700 07011G16KT P6SM -SHRA BKN020 OVC070=



Latest METAR

726
SAUS70 KWBC 221000 RRG
MTRGNV
METAR KGNV 220953Z AUTO 03007KT 10SM OVC055 13/11 A3027 RMK AO2 SLP249
T01330111


USA.gov is the U.S. government's official web portal to all federal, state and local government web resources and services.